Hlavní strana
METAR-TAF:

METAR-TAF

Letiště :

Leknes, Norsko

zeměpisná šířka: 68-09N, zeměpisná délka: 013-37E, výška: 2 m

Aktuální stav počasí

Zpráva byla vytvořena před 1 hodinou a 12 minutami, v 13:50 UTC
Západojihozápadní vítr 18 kt
Teplota 8°C
Vlhkost vzduchu 81%
Tlak 1009 hPa
Viditelnost: 5000 m
Polojasno ve výšce 1500 ft
Oblačno až skoro zataženo ve výšce 2000 ft
déšť

METAR: ENLK 281350Z 24018KT 9999 5000W RA SCT015 BKN020 08/05 Q1009

Čas: 16:02 (15:02 UTC)


TAF: chybějící

Stav a předpovědi počasí z více než 4 000 letišť (zprávy METAR a TAF).

Červené a žluté tečky na mapě představují dostupné meteorologické stanice.

Když kurzor umístíte na tečku, zobrazí se název stanice.

Pak kliknutím zobrazíte stav a předpověď počasí.

Chcete-li změnit mapu, kliknutím na zelené tlačítko se znaménkem +mapu přiblížíte, kliknutím na zelené tlačítko se znaménkem – mapu oddálíte a kliknutím na zelené šipky přejdete na sousední mapy.


METAR-TAF: